YVC weather

La Ronge Airport
La Ronge, Saskatchewan, Canada

Public forecast

Using degrees Celsius for public forecast. Weather courtesy of forecast.io.

METAR (pilot weather report)

Retrieved 2019/05/22 04:00 UTC (4 minutes ago):

CYVC 220400Z 17002KT 15SM SKC 12/01 A3005 RMK SLP187

TAF (pilot weather forecast)

Retrieved 2019/05/22 01:42 UTC (2 hours ago):

TAF CYVC 220038Z 2201/2213 VRB03KT P6SM FEW080 SCT250 RMK NXT FCST BY 220700Z